Terminal Aerodrome Forecast
Issued by NWS Twin Cities, MN

Home | Current Version | Previous Version | Text Only | Print | Product List | Glossary Off
Versions: 1 2 3 4 5 6 7 8 9 10 11 12 13 14 15 16 17 18 19 20 21 22 23 24 25 26 27 28 29

185
FTUS43 KMPX 240520
TAFMSP
TAF
KMSP 240520Z 2406/2512 12011KT P6SM SCT007 OVC016
     FM240900 12010KT P6SM OVC007
     FM241600 11012KT P6SM SCT007 OVC012
     FM241900 12012KT P6SM BKN025 OVC035
     FM250200 12013KT P6SM VCTS OVC035CB
      TEMPO 2504/2508 2SM TSRA OVC020CB=

USA.gov is the U.S. government's official web portal to all federal, state and local government web resources and services.